createdAt,value
2018-02-01T00:00:14.091Z,99.99
2018-02-01T00:01:13.813Z,99.99
2018-02-01T00:02:14.033Z,99.99
2018-02-01T00:03:14.003Z,99.99
2018-02-01T00:04:13.974Z,99.99
2018-02-01T00:05:13.947Z,99.99
2018-02-01T00:06:13.917Z,99.99
2018-02-01T00:07:13.887Z,99.99
2018-02-01T00:08:13.612Z,99.99
2018-02-01T00:09:13.829Z,99.99
2018-02-01T00:10:13.803Z,99.99
2018-02-01T00:11:13.770Z,99.99
2018-02-01T00:12:13.740Z,99.99
2018-02-01T00:13:13.466Z,99.99
2018-02-01T00:14:13.436Z,99.99
2018-02-01T00:15:13.653Z,99.99
2018-02-01T00:16:13.378Z,99.99
2018-02-01T00:17:13.595Z,99.99
2018-02-01T00:18:13.318Z,99.99
2018-02-01T00:19:13.534Z,99.99
2018-02-01T00:20:13.509Z,99.99
2018-02-01T00:21:13.477Z,99.99
2018-02-01T00:22:13.449Z,99.99
2018-02-01T00:23:13.421Z,99.99
2018-02-01T00:24:13.390Z,99.99
2018-02-01T00:25:13.361Z,99.99
2018-02-01T00:26:13.087Z,99.99
2018-02-01T00:27:13.302Z,99.99
2018-02-01T00:28:13.275Z,99.99
2018-02-01T00:29:12.997Z,99.99
2018-02-01T00:30:13.215Z,99.99
2018-02-01T00:31:13.183Z,99.99
2018-02-01T00:32:12.907Z,99.99
2018-02-01T00:33:12.927Z,99.99
2018-02-01T00:34:13.096Z,99.99
2018-02-01T00:35:13.065Z,99.99
2018-02-01T00:36:12.789Z,99.99
2018-02-01T00:37:13.007Z,99.99
2018-02-01T00:38:13.078Z,99.99
2018-02-01T00:39:12.944Z,99.99
2018-02-01T00:40:12.668Z,99.99
2018-02-01T00:41:12.886Z,99.99
2018-02-01T00:42:12.623Z,99.99
2018-02-01T00:43:12.825Z,99.99
2018-02-01T00:44:12.800Z,99.99
2018-02-01T00:45:12.765Z,99.99
2018-02-01T00:46:12.490Z,99.99
2018-02-01T00:47:12.711Z,99.99
2018-02-01T00:48:12.676Z,99.99
2018-02-01T00:49:12.403Z,99.99
2018-02-01T00:50:12.372Z,99.99
2018-02-01T00:51:12.590Z,99.99
2018-02-01T00:52:12.559Z,99.99
2018-02-01T00:53:12.530Z,99.99
2018-02-01T00:54:12.500Z,99.99
2018-02-01T00:55:12.473Z,99.99
2018-02-01T00:56:12.440Z,99.99
2018-02-01T00:57:12.165Z,99.99
2018-02-01T00:58:12.379Z,99.99
2018-02-01T00:59:12.348Z,99.99
2018-02-01T01:00:12.320Z,99.99
2018-02-01T01:01:12.291Z,99.99
2018-02-01T01:02:12.261Z,99.99
2018-02-01T01:03:12.233Z,99.99
2018-02-01T01:04:12.204Z,99.99
2018-02-01T01:05:12.173Z,99.99
2018-02-01T01:06:12.141Z,99.99
2018-02-01T01:07:12.110Z,99.99
2018-02-01T01:08:11.836Z,99.99
2018-02-01T01:09:12.052Z,99.99
2018-02-01T01:10:12.028Z,99.99
2018-02-01T01:11:11.993Z,99.99
2018-02-01T01:12:11.721Z,99.99
2018-02-01T01:13:11.687Z,99.99
2018-02-01T01:14:11.660Z,99.99
2018-02-01T01:15:11.874Z,99.99
2018-02-01T01:16:11.598Z,99.99
2018-02-01T01:17:11.817Z,99.99
2018-02-01T01:18:11.786Z,99.99
2018-02-01T01:19:11.854Z,99.99
2018-02-01T01:20:11.724Z,99.99
2018-02-01T01:21:11.694Z,99.99
2018-02-01T01:22:11.668Z,99.99
2018-02-01T01:23:11.635Z,99.99
2018-02-01T01:24:11.606Z,99.99
2018-02-01T01:25:11.574Z,99.99
2018-02-01T01:26:11.548Z,99.99
2018-02-01T01:27:11.514Z,99.99
2018-02-01T01:28:11.488Z,99.99
2018-02-01T01:29:11.458Z,99.99
2018-02-01T01:30:11.182Z,99.99
2018-02-01T01:31:11.398Z,99.99
2018-02-01T01:32:11.368Z,99.99
2018-02-01T01:33:11.337Z,99.99
2018-02-01T01:34:11.306Z,99.99
2018-02-01T01:35:11.275Z,99.99
2018-02-01T01:36:11.245Z,99.99
2018-02-01T01:37:11.217Z,99.99
2018-02-01T01:38:10.940Z,99.99
2018-02-01T01:39:11.155Z,99.99
2018-02-01T01:40:11.126Z,99.99
2018-02-01T01:41:11.096Z,99.99
2018-02-01T01:42:11.070Z,99.99
2018-02-01T01:43:11.037Z,99.99
2018-02-01T01:44:10.759Z,99.99
2018-02-01T01:45:10.980Z,99.99
2018-02-01T01:46:10.699Z,99.99
2018-02-01T01:47:10.670Z,99.99
2018-02-01T01:48:10.889Z,99.99
2018-02-01T01:49:10.613Z,99.99
2018-02-01T01:50:10.823Z,99.99
2018-02-01T01:51:10.551Z,99.99
2018-02-01T01:52:10.765Z,99.99
2018-02-01T01:53:10.736Z,99.99
2018-02-01T01:54:10.705Z,99.99
2018-02-01T01:55:10.678Z,99.99
2018-02-01T01:56:10.652Z,99.99
2018-02-01T01:57:10.662Z,99.99
2018-02-01T01:58:10.594Z,99.99
2018-02-01T01:59:10.560Z,99.99
2018-02-01T02:00:10.535Z,99.99
2018-02-01T02:01:10.252Z,99.99
2018-02-01T02:02:10.469Z,99.99
2018-02-01T02:03:10.439Z,99.99
2018-02-01T02:04:10.407Z,99.99
2018-02-01T02:05:10.383Z,99.99
2018-02-01T02:06:10.353Z,99.99
2018-02-01T02:07:10.316Z,99.99
2018-02-01T02:08:10.041Z,99.99
2018-02-01T02:09:10.257Z,99.99
2018-02-01T02:10:10.230Z,99.99
2018-02-01T02:11:09.953Z,99.99
2018-02-01T02:12:10.169Z,99.99
2018-02-01T02:13:10.138Z,99.99
2018-02-01T02:14:10.116Z,99.99
2018-02-01T02:15:09.855Z,99.99
2018-02-01T02:16:10.045Z,99.99
2018-02-01T02:17:09.773Z,99.99
2018-02-01T02:18:09.987Z,99.99
2018-02-01T02:19:09.957Z,99.99
2018-02-01T02:20:09.930Z,99.99
2018-02-01T02:21:09.652Z,99.99
2018-02-01T02:22:09.872Z,99.99
2018-02-01T02:23:09.838Z,99.99
2018-02-01T02:24:09.561Z,99.99
2018-02-01T02:25:09.779Z,99.99
2018-02-01T02:26:09.747Z,99.99
2018-02-01T02:27:09.716Z,99.99
2018-02-01T02:28:09.687Z,99.99
2018-02-01T02:29:09.658Z,99.99
2018-02-01T02:30:09.638Z,99.99
2018-02-01T02:31:09.602Z,99.99
2018-02-01T02:32:09.568Z,99.99
2018-02-01T02:33:09.548Z,99.99
2018-02-01T02:34:09.509Z,99.99
2018-02-01T02:35:09.479Z,99.99
2018-02-01T02:36:09.452Z,99.99
2018-02-01T02:37:09.419Z,99.99
2018-02-01T02:38:09.392Z,99.99
2018-02-01T02:39:09.358Z,99.99
2018-02-01T02:40:09.330Z,99.99
2018-02-01T02:41:09.299Z,99.99
2018-02-01T02:42:09.267Z,99.99
2018-02-01T02:43:09.241Z,99.99
2018-02-01T02:44:09.210Z,99.99
2018-02-01T02:45:09.184Z,99.99
2018-02-01T02:46:08.906Z,99.99
2018-02-01T02:47:09.129Z,99.99
2018-02-01T02:48:09.094Z,99.99
2018-02-01T02:49:09.058Z,99.99
2018-02-01T02:50:09.037Z,99.99
2018-02-01T02:51:08.999Z,99.99
2018-02-01T02:52:08.726Z,99.99
2018-02-01T02:53:08.941Z,99.99
2018-02-01T02:54:08.911Z,99.99
2018-02-01T02:55:08.876Z,99.99
2018-02-01T02:56:08.851Z,99.99
2018-02-01T02:57:08.823Z,99.99
2018-02-01T02:58:08.788Z,99.99
2018-02-01T02:59:08.759Z,99.99
2018-02-01T03:00:08.534Z,99.99
2018-02-01T03:01:08.461Z,99.99
2018-02-01T03:02:08.422Z,99.99
2018-02-01T03:03:08.638Z,99.99
2018-02-01T03:04:08.609Z,99.99
2018-02-01T03:05:08.582Z,99.99
2018-02-01T03:06:08.300Z,99.99
2018-02-01T03:07:08.270Z,99.99
2018-02-01T03:08:08.490Z,99.99
2018-02-01T03:09:08.210Z,99.99
2018-02-01T03:10:08.179Z,99.99
2018-02-01T03:11:08.150Z,99.99
2018-02-01T03:12:08.118Z,99.99
2018-02-01T03:13:08.334Z,99.99
2018-02-01T03:14:08.311Z,99.99
2018-02-01T03:15:08.277Z,99.99
2018-02-01T03:16:08.253Z,99.99
2018-02-01T03:17:07.969Z,99.99
2018-02-01T03:18:07.937Z,99.99
2018-02-01T03:19:08.155Z,99.99
2018-02-01T03:20:08.123Z,99.99
2018-02-01T03:21:08.092Z,99.99
2018-02-01T03:22:08.065Z,99.99
2018-02-01T03:23:07.789Z,99.99
2018-02-01T03:24:08.005Z,99.99
2018-02-01T03:25:07.727Z,99.99
2018-02-01T03:26:07.942Z,99.99
2018-02-01T03:27:07.915Z,99.99
2018-02-01T03:28:07.885Z,99.99
2018-02-01T03:29:07.613Z,99.99
2018-02-01T03:30:07.825Z,99.99
2018-02-01T03:31:07.547Z,99.99
2018-02-01T03:32:07.762Z,99.99
2018-02-01T03:33:07.487Z,99.99
2018-02-01T03:34:07.700Z,99.99
2018-02-01T03:35:07.671Z,99.99
2018-02-01T03:36:07.638Z,99.99
2018-02-01T03:37:07.609Z,99.99
2018-02-01T03:38:07.582Z,99.99
2018-02-01T03:39:07.551Z,99.99
2018-02-01T03:40:07.274Z,99.99
2018-02-01T03:41:07.487Z,99.99
2018-02-01T03:42:07.457Z,99.99
2018-02-01T03:43:07.429Z,99.99
2018-02-01T03:44:07.399Z,99.99
2018-02-01T03:45:07.370Z,99.99
2018-02-01T03:46:07.092Z,99.99
2018-02-01T03:47:07.063Z,99.99
2018-02-01T03:48:07.276Z,99.99
2018-02-01T03:49:07.249Z,99.99
2018-02-01T03:50:06.970Z,99.99
2018-02-01T03:51:07.193Z,99.99
2018-02-01T03:52:06.910Z,99.99
2018-02-01T03:53:07.129Z,99.99
2018-02-01T03:54:07.096Z,99.99
2018-02-01T03:55:07.066Z,99.99
2018-02-01T03:56:06.793Z,99.99
2018-02-01T03:57:07.004Z,99.99
2018-02-01T03:58:06.972Z,99.99
2018-02-01T03:59:06.698Z,99.99
2018-02-01T04:00:06.913Z,99.99
2018-02-01T04:01:06.884Z,99.99
2018-02-01T04:02:06.858Z,99.99
2018-02-01T04:03:06.578Z,99.99
2018-02-01T04:04:06.794Z,99.99
2018-02-01T04:05:06.759Z,99.99
2018-02-01T04:06:06.732Z,99.99
2018-02-01T04:07:06.453Z,99.99
2018-02-01T04:08:06.423Z,99.99
2018-02-01T04:09:06.645Z,99.99
2018-02-01T04:10:06.612Z,99.99
2018-02-01T04:11:06.578Z,99.99
2018-02-01T04:12:06.304Z,99.99
2018-02-01T04:13:06.519Z,99.99
2018-02-01T04:14:06.244Z,99.99
2018-02-01T04:15:06.456Z,99.99
2018-02-01T04:16:06.181Z,99.99
2018-02-01T04:17:06.448Z,99.99
2018-02-01T04:18:06.368Z,99.99
2018-02-01T04:19:06.092Z,99.99
2018-02-01T04:20:06.308Z,99.99
2018-02-01T04:21:06.033Z,99.99
2018-02-01T04:22:06.246Z,99.99
2018-02-01T04:23:06.217Z,99.99
2018-02-01T04:24:06.184Z,99.99
2018-02-01T04:25:05.911Z,99.99
2018-02-01T04:26:05.878Z,99.99
2018-02-01T04:27:06.093Z,99.99
2018-02-01T04:28:06.062Z,99.99
2018-02-01T04:29:06.032Z,99.99
2018-02-01T04:30:06.006Z,99.99
2018-02-01T04:31:05.727Z,99.99
2018-02-01T04:32:05.944Z,99.99
2018-02-01T04:33:05.913Z,99.99
2018-02-01T04:34:05.883Z,99.99
2018-02-01T04:35:05.849Z,99.99
2018-02-01T04:36:05.819Z,99.99
2018-02-01T04:37:05.791Z,99.99
2018-02-01T04:38:05.769Z,99.99
2018-02-01T04:39:05.728Z,99.99
2018-02-01T04:40:05.698Z,99.99
2018-02-01T04:41:05.669Z,99.99
2018-02-01T04:42:05.393Z,99.99
2018-02-01T04:43:05.606Z,99.99
2018-02-01T04:44:05.576Z,99.99
2018-02-01T04:45:05.680Z,99.99
2018-02-01T04:46:05.555Z,99.99
2018-02-01T04:47:05.492Z,99.99
2018-02-01T04:48:05.210Z,99.99
2018-02-01T04:49:05.425Z,99.99
2018-02-01T04:50:05.397Z,99.99
2018-02-01T04:51:05.362Z,99.99
2018-02-01T04:52:05.333Z,99.99
2018-02-01T04:53:05.303Z,99.99
2018-02-01T04:54:05.271Z,99.99
2018-02-01T04:55:04.998Z,99.99
2018-02-01T04:56:05.218Z,99.99
2018-02-01T04:57:05.181Z,99.99
2018-02-01T04:58:05.158Z,99.99
2018-02-01T04:59:05.121Z,99.99
2018-02-01T05:00:05.094Z,99.99
2018-02-01T05:01:05.057Z,99.99
2018-02-01T05:02:05.033Z,99.99
2018-02-01T05:03:04.999Z,99.99
2018-02-01T05:04:04.969Z,99.99
2018-02-01T05:05:04.940Z,99.99
2018-02-01T05:06:04.908Z,99.99
2018-02-01T05:07:04.875Z,99.99
2018-02-01T05:08:04.845Z,99.99
2018-02-01T05:09:04.817Z,99.99
2018-02-01T05:10:04.541Z,99.99
2018-02-01T05:11:04.759Z,99.99
2018-02-01T05:12:04.721Z,99.99
2018-02-01T05:13:04.445Z,99.99
2018-02-01T05:14:04.444Z,99.99
2018-02-01T05:15:04.630Z,99.99
2018-02-01T05:16:04.355Z,99.99
2018-02-01T05:17:04.568Z,99.99
2018-02-01T05:18:04.591Z,99.99
2018-02-01T05:19:04.508Z,99.99
2018-02-01T05:20:04.482Z,99.99
2018-02-01T05:21:04.445Z,99.99
2018-02-01T05:22:04.419Z,99.99
2018-02-01T05:23:04.386Z,99.99
2018-02-01T05:24:04.357Z,99.99
2018-02-01T05:25:04.327Z,99.99
2018-02-01T05:26:04.293Z,99.99
2018-02-01T05:27:04.262Z,99.99
2018-02-01T05:28:04.238Z,99.99
2018-02-01T05:29:04.204Z,99.99
2018-02-01T05:30:03.927Z,99.99
2018-02-01T05:31:04.144Z,99.99
2018-02-01T05:32:04.113Z,99.99
2018-02-01T05:33:03.834Z,99.99
2018-02-01T05:34:03.802Z,99.99
2018-02-01T05:35:03.772Z,99.99
2018-02-01T05:36:03.987Z,99.99
2018-02-01T05:37:03.711Z,99.99
2018-02-01T05:38:03.929Z,99.99
2018-02-01T05:39:03.653Z,99.99
2018-02-01T05:40:03.866Z,99.99
2018-02-01T05:41:03.837Z,99.99
2018-02-01T05:42:03.806Z,99.99
2018-02-01T05:43:03.776Z,99.99
2018-02-01T05:44:03.744Z,99.99
2018-02-01T05:45:03.724Z,99.99
2018-02-01T05:46:03.682Z,99.99
2018-02-01T05:47:03.654Z,99.99
2018-02-01T05:48:03.623Z,99.99
2018-02-01T05:49:03.592Z,99.99
2018-02-01T05:50:03.563Z,99.99
2018-02-01T05:51:03.531Z,99.99
2018-02-01T05:52:03.496Z,99.99
2018-02-01T05:53:03.472Z,99.99
2018-02-01T05:54:03.193Z,99.99
2018-02-01T05:55:03.404Z,99.99
2018-02-01T05:56:03.383Z,99.99
2018-02-01T05:57:03.348Z,99.99
2018-02-01T05:58:03.068Z,99.99
2018-02-01T05:59:03.283Z,99.99
2018-02-01T06:00:03.006Z,99.99
2018-02-01T06:01:03.222Z,99.99
2018-02-01T06:02:03.191Z,99.99
2018-02-01T06:03:03.194Z,99.99
2018-02-01T06:04:03.133Z,99.99
2018-02-01T06:05:03.101Z,99.99
2018-02-01T06:06:03.069Z,99.99
2018-02-01T06:07:03.040Z,99.99
2018-02-01T06:08:03.010Z,99.99
2018-02-01T06:09:02.979Z,99.99
2018-02-01T06:10:02.701Z,99.99
2018-02-01T06:11:02.917Z,99.99
2018-02-01T06:12:02.884Z,99.99
2018-02-01T06:13:02.857Z,99.99
2018-02-01T06:14:03.838Z,99.99
2018-02-01T06:15:03.346Z,99.99
2018-02-01T06:16:02.943Z,99.99
2018-02-01T06:17:02.733Z,99.99
2018-02-01T06:18:02.456Z,99.99
2018-02-01T06:19:02.773Z,99.99
2018-02-01T06:20:02.641Z,99.99
2018-02-01T06:21:02.607Z,99.99
2018-02-01T06:22:02.576Z,99.99
2018-02-01T06:23:02.302Z,99.99
2018-02-01T06:24:02.516Z,99.99
2018-02-01T06:25:02.486Z,99.99
2018-02-01T06:26:02.457Z,99.99
2018-02-01T06:27:02.428Z,99.99
2018-02-01T06:28:02.392Z,99.99
2018-02-01T06:29:02.370Z,99.99
2018-02-01T06:30:02.335Z,99.99
2018-02-01T06:31:02.300Z,99.99
2018-02-01T06:32:02.030Z,99.99
2018-02-01T06:33:02.260Z,99.99
2018-02-01T06:34:01.967Z,99.99
2018-02-01T06:35:02.186Z,99.99
2018-02-01T06:36:02.566Z,99.99
2018-02-01T06:37:02.120Z,99.99
2018-02-01T06:38:01.841Z,99.99
2018-02-01T06:39:01.810Z,99.99
2018-02-01T06:40:02.024Z,99.99
2018-02-01T06:41:01.993Z,99.99
2018-02-01T06:42:01.965Z,99.99
2018-02-01T06:43:01.722Z,99.99
2018-02-01T06:44:01.702Z,99.99
2018-02-01T06:45:01.881Z,99.99
2018-02-01T06:46:01.840Z,99.99
2018-02-01T06:47:01.815Z,99.99
2018-02-01T06:48:01.780Z,99.99
2018-02-01T06:49:01.749Z,99.99
2018-02-01T06:50:01.474Z,99.99
2018-02-01T06:51:01.440Z,99.99
2018-02-01T06:52:01.654Z,99.99
2018-02-01T06:53:01.652Z,99.99
2018-02-01T06:54:01.348Z,99.99
2018-02-01T06:55:01.572Z,99.99
2018-02-01T06:56:01.287Z,99.99
2018-02-01T06:57:01.504Z,99.99
2018-02-01T06:58:01.471Z,99.99
2018-02-01T06:59:01.195Z,99.99
2018-02-01T07:00:01.423Z,99.99
2018-02-01T07:01:01.143Z,99.99
2018-02-01T07:02:01.357Z,99.99
2018-02-01T07:03:01.322Z,99.99
2018-02-01T07:04:01.289Z,99.99
2018-02-01T07:05:01.256Z,99.99
2018-02-01T07:06:01.226Z,99.99
2018-02-01T07:07:01.197Z,99.99
2018-02-01T07:08:01.167Z,99.99
2018-02-01T07:09:01.138Z,99.99
2018-02-01T07:10:01.105Z,99.99
2018-02-01T07:11:01.078Z,99.99
2018-02-01T07:12:01.049Z,99.99
2018-02-01T07:13:01.016Z,99.99
2018-02-01T07:14:00.982Z,99.99
2018-02-01T07:15:01.769Z,99.99
2018-02-01T07:16:01.385Z,99.99
2018-02-01T07:17:00.990Z,99.99
2018-02-01T07:18:00.859Z,99.99
2018-02-01T07:19:00.830Z,99.99
2018-02-01T07:20:00.805Z,99.99
2018-02-01T07:21:00.777Z,99.99
2018-02-01T07:22:00.741Z,99.99
2018-02-01T07:23:01.187Z,99.99
2018-02-01T07:24:01.183Z,99.99
2018-02-01T07:25:00.629Z,99.99
2018-02-01T07:26:00.831Z,99.99
2018-02-01T07:27:00.340Z,99.99
2018-02-01T07:28:00.310Z,99.99
2018-02-01T07:29:00.536Z,99.99
2018-02-01T07:30:00.596Z,99.99
2018-02-01T07:31:00.468Z,99.99
2018-02-01T07:32:00.190Z,99.99
2018-02-01T07:33:00.404Z,99.99
2018-02-01T07:34:00.376Z,99.99
2018-02-01T07:35:00.104Z,99.99
2018-02-01T07:36:00.316Z,99.99
2018-02-01T07:37:00.290Z,99.99
2018-02-01T07:38:00.026Z,99.99
2018-02-01T07:39:00.225Z,99.99
2018-02-01T07:40:00.192Z,99.99
2018-02-01T07:41:00.164Z,99.99
2018-02-01T07:42:00.132Z,99.99
2018-02-01T07:43:00.102Z,99.99
2018-02-01T07:44:00.072Z,99.99
2018-02-01T07:45:00.056Z,99.99
2018-02-01T07:46:00.040Z,99.99
2018-02-01T07:47:00.001Z,99.99
2018-02-01T07:48:00.060Z,99.99
2018-02-01T07:48:59.958Z,99.99
2018-02-01T07:49:59.707Z,99.99
2018-02-01T07:51:00.058Z,99.99
2018-02-01T07:51:59.871Z,99.99
2018-02-01T07:52:59.809Z,99.99
2018-02-01T07:53:59.837Z,99.99
2018-02-01T07:54:59.753Z,99.99
2018-02-01T07:55:59.711Z,99.99
2018-02-01T07:56:59.691Z,99.99
2018-02-01T07:57:59.962Z,99.99
2018-02-01T07:58:59.642Z,99.99
2018-02-01T07:59:59.346Z,99.99
2018-02-01T08:00:59.566Z,99.99
2018-02-01T08:01:59.536Z,99.99
2018-02-01T08:02:59.506Z,99.99
2018-02-01T08:03:59.473Z,99.99
2018-02-01T08:04:59.443Z,99.99
2018-02-01T08:05:59.415Z,99.99
2018-02-01T08:06:59.389Z,99.99
2018-02-01T08:07:59.358Z,99.99
2018-02-01T08:08:59.330Z,99.99
2018-02-01T08:09:59.055Z,99.99
2018-02-01T08:10:59.281Z,99.99
2018-02-01T08:11:59.237Z,99.99
2018-02-01T08:12:59.236Z,99.99
2018-02-01T08:13:59.178Z,99.99
2018-02-01T08:14:59.156Z,99.99
2018-02-01T08:15:59.140Z,99.99
2018-02-01T08:16:59.211Z,99.99
2018-02-01T08:17:59.058Z,99.99
2018-02-01T08:18:58.785Z,99.99
2018-02-01T08:19:59.228Z,99.99
2018-02-01T08:20:59.579Z,99.99
2018-02-01T08:21:59.961Z,99.99
2018-02-01T08:22:58.912Z,99.99
2018-02-01T08:23:58.635Z,99.99
2018-02-01T08:24:59.419Z,99.99
2018-02-01T08:26:00.164Z,99.99
2018-02-01T08:26:59.371Z,99.99
2018-02-01T08:27:59.604Z,99.99
2018-02-01T08:28:59.453Z,99.99
2018-02-01T08:29:59.010Z,99.99
2018-02-01T08:30:59.600Z,99.99
2018-02-01T08:31:59.417Z,99.99
2018-02-01T08:32:58.787Z,99.99
2018-02-01T08:33:58.341Z,99.99
2018-02-01T08:34:58.556Z,99.99
2018-02-01T08:35:58.282Z,99.99
2018-02-01T08:36:58.500Z,99.99
2018-02-01T08:37:58.468Z,99.99
2018-02-01T08:38:58.192Z,99.99
2018-02-01T08:39:58.411Z,99.99
2018-02-01T08:40:58.470Z,99.99
2018-02-01T08:41:58.350Z,99.99
2018-02-01T08:42:58.319Z,99.99
2018-02-01T08:43:58.046Z,99.99
2018-02-01T08:44:58.313Z,99.99
2018-02-01T08:45:58.288Z,99.99
2018-02-01T08:46:58.205Z,99.99
2018-02-01T08:47:58.173Z,99.99
2018-02-01T08:48:58.146Z,99.99
2018-02-01T08:49:58.114Z,99.99
2018-02-01T08:50:58.883Z,99.99
2018-02-01T08:51:58.057Z,99.99
2018-02-01T08:52:58.033Z,99.99
2018-02-01T08:53:58.027Z,99.99
2018-02-01T08:54:57.969Z,99.99
2018-02-01T08:55:57.941Z,99.99
2018-02-01T08:56:57.910Z,99.99
2018-02-01T08:57:57.878Z,99.99
2018-02-01T08:58:57.849Z,99.99
2018-02-01T08:59:57.821Z,99.99
2018-02-01T09:00:57.550Z,99.99
2018-02-01T09:01:57.517Z,99.99
2018-02-01T09:02:57.739Z,99.99
2018-02-01T09:03:57.706Z,99.99
2018-02-01T09:04:57.676Z,99.99
2018-02-01T09:05:57.652Z,99.99
2018-02-01T09:06:57.370Z,99.99
2018-02-01T09:07:57.587Z,99.99
2018-02-01T09:08:57.559Z,99.99
2018-02-01T09:09:57.535Z,99.99
2018-02-01T09:10:57.502Z,99.99
2018-02-01T09:11:57.473Z,99.99
2018-02-01T09:12:57.495Z,99.99
2018-02-01T09:13:57.414Z,99.99
2018-02-01T09:14:57.381Z,99.99
2018-02-01T09:15:57.356Z,99.99
2018-02-01T09:16:57.345Z,99.99
2018-02-01T09:17:57.051Z,99.99
2018-02-01T09:18:57.515Z,99.99
2018-02-01T09:19:57.240Z,99.99
2018-02-01T09:20:57.211Z,99.99
2018-02-01T09:21:57.182Z,99.99
2018-02-01T09:22:57.803Z,99.99
2018-02-01T09:23:57.808Z,99.99
2018-02-01T09:24:57.785Z,99.99
2018-02-01T09:25:57.300Z,99.99
2018-02-01T09:26:57.539Z,99.99
2018-02-01T09:27:57.006Z,99.99
2018-02-01T09:28:56.869Z,99.99
2018-02-01T09:29:56.954Z,99.99
2018-02-01T09:34:02.490Z,99.99
2018-02-01T09:34:56.807Z,99.99
2018-02-01T09:35:56.783Z,99.99
2018-02-01T09:36:56.750Z,99.99
2018-02-01T09:37:56.480Z,99.99
2018-02-01T09:38:56.698Z,99.99
2018-02-01T09:39:56.674Z,99.99
2018-02-01T09:40:56.660Z,99.99
2018-02-01T09:41:56.614Z,99.99
2018-02-01T09:42:56.590Z,99.99
2018-02-01T09:43:56.564Z,99.99
2018-02-01T09:44:56.535Z,99.99
2018-02-01T09:45:56.518Z,99.99
2018-02-01T09:46:56.480Z,99.99
2018-02-01T09:47:56.205Z,99.99
2018-02-01T09:48:56.178Z,99.99
2018-02-01T09:49:56.394Z,99.99
2018-02-01T09:50:56.370Z,99.99
2018-02-01T09:51:56.093Z,99.99
2018-02-01T09:52:56.313Z,99.99
2018-02-01T09:53:56.293Z,99.99
2018-02-01T09:54:56.258Z,99.99
2018-02-01T09:55:56.227Z,99.99
2018-02-01T09:56:56.201Z,99.99
2018-02-01T09:57:56.175Z,99.99
2018-02-01T09:58:56.247Z,99.99
2018-02-01T09:59:56.119Z,99.99
2018-02-01T10:00:56.233Z,99.99
2018-02-01T10:01:56.068Z,99.99
2018-02-01T10:02:56.049Z,99.99
2018-02-01T10:03:55.765Z,99.99
2018-02-01T10:04:55.984Z,99.99
2018-02-01T10:05:55.959Z,99.99
2018-02-01T10:06:55.934Z,99.99
2018-02-01T10:07:55.659Z,99.99
2018-02-01T10:08:55.924Z,99.99
2018-02-01T10:09:56.045Z,99.99
2018-02-01T10:10:55.826Z,99.99
2018-02-01T10:11:55.800Z,99.99
2018-02-01T10:12:55.789Z,99.99
2018-02-01T10:13:55.745Z,99.99
2018-02-01T10:14:55.720Z,99.99
2018-02-01T10:15:55.696Z,99.99
2018-02-01T10:16:55.668Z,99.99
2018-02-01T10:17:55.536Z,99.99
2018-02-01T10:18:55.367Z,99.99
2018-02-01T10:19:55.590Z,99.99
2018-02-01T10:20:55.563Z,99.99
2018-02-01T10:21:55.535Z,99.68
2018-02-01T10:22:55.512Z,99.2
2018-02-01T10:23:55.238Z,98.63
2018-02-01T10:24:55.506Z,98.44
2018-02-01T10:25:55.185Z,98.73
2018-02-01T10:26:55.438Z,98.73
2018-02-01T10:27:55.393Z,98.44
2018-02-01T10:31:55.028Z,97.4
2018-02-01T10:32:55.249Z,97.12
2018-02-01T10:33:55.218Z,96.64
2018-02-01T10:34:54.961Z,96.64
2018-02-01T10:35:55.170Z,96.26
2018-02-01T10:36:55.147Z,95.98
2018-02-01T10:37:54.868Z,95.6
2018-02-01T10:38:54.840Z,94.93
2018-02-01T10:39:55.072Z,94.74
2018-02-01T10:40:55.036Z,93.89
2018-02-01T10:41:55.106Z,94.08
2018-02-01T10:42:54.734Z,93.61
2018-02-01T10:43:54.952Z,93.04
2018-02-01T10:44:54.932Z,94.08
2018-02-01T10:45:54.901Z,93.8
2018-02-01T10:46:54.876Z,93.7
2018-02-01T10:47:54.848Z,93.89
2018-02-01T10:48:54.586Z,93.8
2018-02-01T10:49:54.798Z,94.08
2018-02-01T10:50:54.774Z,93.89
2018-02-01T10:51:54.748Z,93.41
2018-02-01T10:52:54.721Z,93.23
2018-02-01T10:53:54.701Z,92.94
2018-02-01T10:54:54.668Z,92.23
2018-02-01T10:55:54.642Z,92.23
2018-02-01T10:56:54.614Z,92.42
2018-02-01T10:57:54.591Z,91.94
2018-02-01T10:58:54.321Z,91.85
2018-02-01T10:59:54.298Z,92.14
2018-02-01T11:00:54.513Z,91.09
2018-02-01T11:01:54.242Z,90.62
2018-02-01T11:02:54.461Z,90.81
2018-02-01T11:03:54.436Z,91
2018-02-01T11:04:54.203Z,90.52
2018-02-01T11:05:54.381Z,90.62
2018-02-01T11:06:54.364Z,90.14
2018-02-01T11:07:54.333Z,90.9
2018-02-01T11:08:54.310Z,90.43
2018-02-01T11:09:54.278Z,90.71
2018-02-01T11:10:54.254Z,89.95
2018-02-01T11:11:54.227Z,90.05
2018-02-01T11:12:53.961Z,89.81
2018-02-01T11:13:54.176Z,89.81
2018-02-01T11:14:54.158Z,90.19
2018-02-01T11:15:54.121Z,90.38
2018-02-01T11:16:54.098Z,90.38
2018-02-01T11:17:54.072Z,90.76
2018-02-01T11:18:54.058Z,90.76
2018-02-01T11:19:54.213Z,90.86
2018-02-01T11:20:53.992Z,90.67
2018-02-01T11:21:53.967Z,90.71
2018-02-01T11:22:53.693Z,90.43
2018-02-01T11:23:53.913Z,89.86
2018-02-01T11:24:53.889Z,90.14
2018-02-01T11:25:53.860Z,90.05
2018-02-01T11:26:53.589Z,89.48
2018-02-01T11:27:54.092Z,89.76
2018-02-01T11:28:53.928Z,89.48
2018-02-01T11:29:53.668Z,89.39
2018-02-01T11:30:53.796Z,89.39
2018-02-01T11:31:53.702Z,89.58
2018-02-01T11:32:53.433Z,89.39
2018-02-01T11:33:53.652Z,89.29
2018-02-01T11:34:53.379Z,89.29
2018-02-01T11:35:53.604Z,89.39
2018-02-01T11:36:53.575Z,89.39
2018-02-01T11:37:53.647Z,89.29
2018-02-01T11:38:53.519Z,89.39
2018-02-01T11:39:53.493Z,89.58
2018-02-01T11:40:53.223Z,89
2018-02-01T11:41:53.948Z,88.81
2018-02-01T11:42:53.417Z,89.1
2018-02-01T11:43:53.393Z,88.53
2018-02-01T11:44:53.426Z,88.43
2018-02-01T11:45:53.340Z,88.53
2018-02-01T11:46:53.316Z,88.43
2018-02-01T11:47:53.288Z,88.06
2018-02-01T11:48:53.016Z,87.96
2018-02-01T11:49:53.238Z,87.49
2018-02-01T11:50:53.212Z,88.06
2018-02-01T11:51:53.187Z,87.77
2018-02-01T11:52:53.158Z,87.77
2018-02-01T11:53:53.132Z,87.3
2018-02-01T11:54:52.865Z,87.39
2018-02-01T11:55:53.089Z,87.11
2018-02-01T11:56:53.109Z,87.3
2018-02-01T11:57:53.137Z,87.3
2018-02-01T11:58:53.059Z,87.2
2018-02-01T11:59:52.734Z,86.72
2018-02-01T12:00:53.089Z,86.44
2018-02-01T12:01:52.808Z,85.87
2018-02-01T12:02:52.684Z,85.21
2018-02-01T12:03:52.874Z,85.02
2018-02-01T12:04:52.856Z,84.64
2018-02-01T12:05:52.827Z,84.55
2018-02-01T12:06:52.801Z,84.74
2018-02-01T12:07:52.772Z,84.26
2018-02-01T12:08:52.782Z,84.83
2018-02-01T12:09:52.722Z,84.07
2018-02-01T12:10:52.695Z,83.88
2018-02-01T12:11:52.671Z,83.88
2018-02-01T12:12:52.645Z,83.88
2018-02-01T12:13:52.623Z,83.69
2018-02-01T12:14:52.595Z,83.88
2018-02-01T12:15:52.321Z,83.88
2018-02-01T12:16:52.540Z,83.12
2018-02-01T12:17:52.519Z,82.65
2018-02-01T12:18:52.525Z,82.84
2018-02-01T12:19:52.467Z,82.17
2018-02-01T12:20:52.438Z,82.08
2018-02-01T12:21:52.414Z,81.79
2018-02-01T12:22:52.391Z,81.88
2018-02-01T12:23:52.116Z,81.88
2018-02-01T12:24:52.337Z,81.88
2018-02-01T12:25:52.067Z,81.88
2018-02-01T12:26:52.284Z,81.51
2018-02-01T12:27:52.262Z,81.6
2018-02-01T12:28:52.234Z,81.74
2018-02-01T12:29:51.964Z,80.79
2018-02-01T12:30:52.188Z,80.27
2018-02-01T12:31:51.912Z,80.08
2018-02-01T12:32:52.131Z,80.18
2018-02-01T12:33:52.717Z,80.18
2018-02-01T12:34:52.118Z,80.37
2018-02-01T12:35:52.056Z,80.56
2018-02-01T12:36:52.039Z,81.13
2018-02-01T12:37:52.005Z,80.27
2018-02-01T12:38:51.993Z,80.27
2018-02-01T12:39:51.957Z,80.08
2018-02-01T12:40:51.932Z,80.37
2018-02-01T12:41:51.903Z,80.56
2018-02-01T12:42:51.880Z,80.84
2018-02-01T12:43:51.858Z,80.88
2018-02-01T12:44:52.073Z,80.79
2018-02-01T12:45:52.447Z,81.23
2018-02-01T12:46:51.548Z,81.45
2018-02-01T12:47:51.868Z,81.74
2018-02-01T12:48:51.728Z,81.84
2018-02-01T12:49:51.706Z,81.32
2018-02-01T12:50:51.678Z,81.88
2018-02-01T12:51:51.401Z,82.55
2018-02-01T12:52:51.376Z,82.27
2018-02-01T12:53:51.597Z,82.93
2018-02-01T12:54:51.571Z,82.65
2018-02-01T12:55:51.553Z,83.12
2018-02-01T12:56:51.517Z,83.22
2018-02-01T12:57:51.245Z,83.59
2018-02-01T12:58:51.468Z,83.69